createdAt,value
2022-08-17T00:00:12.038Z,7.10
2022-08-17T00:03:03.072Z,7.10
2022-08-17T00:05:33.584Z,6.80
2022-08-17T00:08:02.001Z,6.80
2022-08-17T00:10:30.352Z,6.70
2022-08-17T00:13:04.468Z,7.50
2022-08-17T00:15:32.319Z,6.60
2022-08-17T00:18:00.009Z,7.00
2022-08-17T00:20:30.486Z,6.50
2022-08-17T00:23:08.649Z,7.00
2022-08-17T00:25:36.768Z,7.60
2022-08-17T00:28:06.430Z,6.80
2022-08-17T00:30:53.085Z,7.30
2022-08-17T00:33:24.004Z,7.40
2022-08-17T00:35:53.182Z,7.40
2022-08-17T00:38:21.863Z,7.50
2022-08-17T00:40:55.629Z,6.80
2022-08-17T00:43:31.087Z,7.30
2022-08-17T00:46:00.690Z,6.50
2022-08-17T00:48:30.795Z,7.30
2022-08-17T00:51:04.056Z,7.50
2022-08-17T00:53:35.501Z,7.10
2022-08-17T00:56:07.858Z,7.20
2022-08-17T00:58:36.941Z,6.80
2022-08-17T01:01:06.332Z,7.20
2022-08-17T01:03:37.049Z,7.10
2022-08-17T01:06:08.340Z,7.20
2022-08-17T01:08:38.104Z,6.80
2022-08-17T01:11:07.648Z,6.80
2022-08-17T01:13:41.105Z,7.00
2022-08-17T01:16:16.640Z,7.20
2022-08-17T01:18:46.627Z,6.80
2022-08-17T01:21:22.293Z,6.90
2022-08-17T01:23:50.192Z,6.40
2022-08-17T01:26:18.903Z,7.10
2022-08-17T01:28:54.974Z,6.80
2022-08-17T01:31:27.753Z,6.90
2022-08-17T01:33:55.533Z,7.70
2022-08-17T01:36:23.338Z,6.70
2022-08-17T01:38:51.143Z,7.20
2022-08-17T01:41:20.561Z,7.60
2022-08-17T01:43:54.934Z,7.00
2022-08-17T01:46:26.608Z,7.30
2022-08-17T01:48:55.610Z,7.60
2022-08-17T01:51:24.723Z,7.10
2022-08-17T01:53:56.810Z,7.50
2022-08-17T01:56:26.226Z,6.70
2022-08-17T01:58:54.302Z,7.10
2022-08-17T02:01:25.816Z,6.80
2022-08-17T02:03:59.376Z,7.00
2022-08-17T02:06:30.615Z,7.40
2022-08-17T02:09:02.977Z,6.90
2022-08-17T02:11:34.253Z,6.70
2022-08-17T02:14:04.493Z,6.70
2022-08-17T02:16:37.549Z,7.10
2022-08-17T02:19:09.107Z,6.50
2022-08-17T02:21:38.364Z,6.40
2022-08-17T02:24:10.212Z,6.80
2022-08-17T02:26:38.201Z,7.10
2022-08-17T02:29:06.649Z,6.70
2022-08-17T02:31:34.931Z,7.10
2022-08-17T02:34:05.315Z,6.50
2022-08-17T02:36:35.015Z,6.80
2022-08-17T02:39:06.139Z,6.40
2022-08-17T02:41:34.034Z,6.10
2022-08-17T02:44:01.957Z,6.40
2022-08-17T02:46:31.369Z,6.40
2022-08-17T02:48:59.281Z,7.30
2022-08-17T02:51:27.411Z,7.00
2022-08-17T02:54:39.447Z,6.30
2022-08-17T02:56:43.653Z,6.50
2022-08-17T02:59:11.627Z,6.60
2022-08-17T03:01:39.755Z,7.10
2022-08-17T03:04:07.681Z,7.20
2022-08-17T03:06:36.720Z,7.30
2022-08-17T03:09:05.023Z,6.90
2022-08-17T03:11:32.811Z,6.90
2022-08-17T03:14:01.641Z,7.10
2022-08-17T03:16:29.417Z,6.70
2022-08-17T03:18:57.266Z,7.00
2022-08-17T03:21:25.037Z,7.40
2022-08-17T03:23:54.527Z,7.40
2022-08-17T03:26:22.663Z,7.00
2022-08-17T03:28:50.403Z,6.80
2022-08-17T03:31:18.222Z,6.60
2022-08-17T03:33:46.014Z,6.70
2022-08-17T03:36:14.229Z,7.40
2022-08-17T03:38:41.953Z,7.20
2022-08-17T03:41:10.824Z,7.20
2022-08-17T03:43:38.642Z,7.00
2022-08-17T03:46:27.900Z,6.80
2022-08-17T03:49:18.863Z,6.90
2022-08-17T03:52:05.021Z,6.60
2022-08-17T03:54:51.224Z,6.80
2022-08-17T03:57:19.349Z,6.90
2022-08-17T03:59:47.901Z,6.50
2022-08-17T04:02:21.108Z,7.40
2022-08-17T04:04:50.241Z,6.70
2022-08-17T04:07:19.026Z,7.20
2022-08-17T04:09:46.767Z,7.20
2022-08-17T04:12:16.760Z,7.00
2022-08-17T04:14:53.562Z,6.90
2022-08-17T04:17:25.371Z,6.90
2022-08-17T04:19:54.465Z,6.90
2022-08-17T04:22:30.894Z,6.80
2022-08-17T04:25:04.747Z,6.60
2022-08-17T04:30:00.090Z,6.70
2022-08-17T04:33:03.409Z,7.20
2022-08-17T04:35:22.312Z,8.70
2022-08-17T04:37:51.031Z,10.10
2022-08-17T04:40:39.475Z,10.70
2022-08-17T04:43:12.832Z,11.50
2022-08-17T04:45:55.089Z,11.70
2022-08-17T04:48:29.967Z,11.20
2022-08-17T04:51:08.858Z,11.50
2022-08-17T04:53:36.792Z,11.30
2022-08-17T04:56:05.231Z,10.30
2022-08-17T04:58:33.255Z,11.40
2022-08-17T05:01:02.302Z,11.40
2022-08-17T05:03:31.280Z,11.60
2022-08-17T05:05:59.102Z,10.60
2022-08-17T05:08:27.259Z,12.50
2022-08-17T05:10:55.413Z,11.70
2022-08-17T05:13:26.627Z,10.90
2022-08-17T05:18:22.671Z,13.10
2022-08-17T05:20:52.937Z,12.50
2022-08-17T05:23:23.306Z,10.80
2022-08-17T05:25:54.317Z,10.70
2022-08-17T05:28:27.408Z,11.60
2022-08-17T05:30:57.820Z,10.20
2022-08-17T05:33:28.571Z,11.50
2022-08-17T05:35:58.977Z,11.00
2022-08-17T05:38:28.622Z,11.00
2022-08-17T05:40:57.693Z,9.90
2022-08-17T05:43:27.842Z,10.50
2022-08-17T05:46:02.505Z,11.90
2022-08-17T05:48:35.832Z,10.60
2022-08-17T05:51:31.787Z,10.90
2022-08-17T05:54:23.117Z,12.70
2022-08-17T05:59:34.475Z,11.40
2022-08-17T06:02:11.150Z,11.90
2022-08-17T06:04:55.008Z,11.80
2022-08-17T06:07:31.503Z,13.50
2022-08-17T06:10:08.659Z,12.70
2022-08-17T06:12:49.791Z,14.10
2022-08-17T06:15:29.994Z,13.80
2022-08-17T06:18:01.602Z,13.90
2022-08-17T06:20:37.911Z,11.80
2022-08-17T06:23:13.971Z,13.80
2022-08-17T06:25:47.574Z,13.30
2022-08-17T06:28:24.947Z,13.40
2022-08-17T06:31:00.607Z,12.60
2022-08-17T06:33:33.691Z,11.70
2022-08-17T06:36:10.791Z,14.80
2022-08-17T06:38:50.727Z,12.40
2022-08-17T06:41:28.513Z,12.10
2022-08-17T06:44:13.192Z,11.70
2022-08-17T06:47:08.237Z,11.10
2022-08-17T06:49:43.345Z,10.10
2022-08-17T06:52:45.946Z,10.10
2022-08-17T06:55:18.742Z,10.10
2022-08-17T06:57:51.899Z,10.00
2022-08-17T07:00:23.225Z,9.80
2022-08-17T07:03:02.510Z,9.20
2022-08-17T07:05:38.713Z,9.00
2022-08-17T07:08:17.838Z,9.50
2022-08-17T07:10:50.747Z,9.60
2022-08-17T07:13:28.773Z,10.50
2022-08-17T07:16:12.521Z,9.60
2022-08-17T07:18:40.762Z,9.50
2022-08-17T07:21:26.170Z,9.40
2022-08-17T07:24:29.907Z,9.20
2022-08-17T07:27:12.362Z,9.10
2022-08-17T07:29:45.602Z,8.30
2022-08-17T07:32:18.709Z,8.10
2022-08-17T07:35:15.290Z,8.90
2022-08-17T07:37:52.479Z,8.60
2022-08-17T07:40:28.299Z,8.90
2022-08-17T07:43:05.833Z,8.10
2022-08-17T07:45:53.424Z,8.00
2022-08-17T07:48:24.739Z,8.10
2022-08-17T07:50:53.292Z,8.20
2022-08-17T07:53:24.267Z,8.30
2022-08-17T07:55:53.400Z,8.30
2022-08-17T07:58:23.910Z,8.60
2022-08-17T08:01:08.003Z,8.20
2022-08-17T08:03:42.217Z,8.20
2022-08-17T08:06:21.591Z,8.00
2022-08-17T08:08:54.452Z,8.50
2022-08-17T08:11:31.954Z,7.90
2022-08-17T08:14:28.696Z,8.20
2022-08-17T08:16:59.598Z,9.00
2022-08-17T08:19:28.738Z,8.30
2022-08-17T08:22:04.883Z,8.40
2022-08-17T08:24:56.992Z,8.90
2022-08-17T08:27:37.803Z,9.50
2022-08-17T08:30:10.099Z,9.20
2022-08-17T08:32:53.361Z,8.30
2022-08-17T08:35:30.201Z,8.70
2022-08-17T08:38:07.063Z,8.70
2022-08-17T08:40:49.340Z,8.00
2022-08-17T08:43:26.838Z,7.90
2022-08-17T08:46:06.346Z,8.80
2022-08-17T08:49:06.515Z,8.50
2022-08-17T08:51:51.761Z,9.00
2022-08-17T08:54:34.007Z,8.50
2022-08-17T08:57:34.015Z,8.40
2022-08-17T09:00:12.159Z,8.40
2022-08-17T09:03:07.682Z,7.80
2022-08-17T09:05:52.732Z,7.60
2022-08-17T09:08:35.223Z,7.60
2022-08-17T09:11:10.045Z,7.20
2022-08-17T09:13:46.107Z,7.40
2022-08-17T09:16:29.173Z,6.90
2022-08-17T09:19:04.627Z,7.40
2022-08-17T09:21:47.757Z,8.30
2022-08-17T09:24:24.825Z,7.00
2022-08-17T09:26:58.405Z,7.00
2022-08-17T09:29:29.268Z,7.00
2022-08-17T09:32:02.829Z,6.50
2022-08-17T09:34:34.921Z,6.80
2022-08-17T09:37:16.713Z,6.00
2022-08-17T09:39:53.097Z,6.60
2022-08-17T09:42:29.577Z,6.70
2022-08-17T09:45:18.929Z,6.90
2022-08-17T09:47:53.530Z,7.00
2022-08-17T09:51:03.609Z,6.80
2022-08-17T09:53:14.588Z,6.80
2022-08-17T09:56:41.043Z,7.40
2022-08-17T09:59:38.169Z,7.10
2022-08-17T10:02:36.541Z,7.50
2022-08-17T10:05:12.879Z,7.40
2022-08-17T10:07:48.027Z,7.70
2022-08-17T10:10:24.228Z,6.90
2022-08-17T10:12:56.664Z,7.60
2022-08-17T10:15:38.607Z,8.40
2022-08-17T10:18:25.109Z,8.50
2022-08-17T10:21:24.778Z,8.50
2022-08-17T10:24:26.524Z,8.10
2022-08-17T10:26:57.825Z,8.40
2022-08-17T10:29:40.814Z,8.70
2022-08-17T10:32:27.608Z,8.20
2022-08-17T10:35:18.169Z,8.30
2022-08-17T10:37:59.893Z,9.10
2022-08-17T10:40:35.297Z,9.60
2022-08-17T10:43:20.614Z,10.00
2022-08-17T10:46:21.537Z,9.60
2022-08-17T10:48:43.227Z,9.10
2022-08-17T10:51:35.500Z,9.50
2022-08-17T10:54:03.995Z,10.30
2022-08-17T10:56:44.730Z,10.10
2022-08-17T10:59:50.429Z,10.40
2022-08-17T11:02:26.767Z,10.40
2022-08-17T11:05:23.340Z,11.30
2022-08-17T11:08:13.591Z,11.80
2022-08-17T11:10:57.265Z,10.40
2022-08-17T11:13:40.638Z,9.40
2022-08-17T11:16:30.276Z,9.50
2022-08-17T11:19:27.658Z,9.20
2022-08-17T11:22:48.223Z,9.10
2022-08-17T11:25:18.801Z,8.70
2022-08-17T11:27:52.850Z,8.70
2022-08-17T11:30:46.289Z,8.40
2022-08-17T11:33:53.301Z,8.40
2022-08-17T11:36:35.196Z,8.10
2022-08-17T11:39:16.818Z,7.70
2022-08-17T11:41:54.786Z,8.20
2022-08-17T11:44:36.952Z,8.20
2022-08-17T11:47:32.915Z,7.70
2022-08-17T11:50:41.801Z,7.60
2022-08-17T11:53:49.441Z,6.60
2022-08-17T11:56:33.867Z,6.60
2022-08-17T11:59:02.282Z,6.70
2022-08-17T12:01:51.936Z,6.90
2022-08-17T12:04:30.983Z,6.50
2022-08-17T12:07:06.227Z,6.80
2022-08-17T12:09:38.465Z,7.70
2022-08-17T12:12:14.425Z,7.30
2022-08-17T12:15:09.644Z,6.60
2022-08-17T12:17:41.107Z,7.20
2022-08-17T12:20:14.872Z,7.20
2022-08-17T12:22:55.712Z,7.40
2022-08-17T12:28:05.097Z,7.50
2022-08-17T12:33:10.960Z,8.10
2022-08-17T12:35:38.919Z,7.90
2022-08-17T12:38:30.360Z,8.00
2022-08-17T12:40:58.158Z,7.10
2022-08-17T12:43:30.516Z,7.40
2022-08-17T12:46:13.497Z,8.20
2022-08-17T12:48:59.234Z,7.90
2022-08-17T12:51:29.217Z,7.40
2022-08-17T12:53:57.427Z,7.90
2022-08-17T12:56:26.360Z,7.50
2022-08-17T12:58:54.969Z,7.50
2022-08-17T13:01:24.331Z,7.20
2022-08-17T13:03:56.619Z,7.10
2022-08-17T13:06:31.624Z,7.40
2022-08-17T13:09:10.162Z,7.90
2022-08-17T13:11:47.837Z,7.20
2022-08-17T13:14:17.848Z,7.60
2022-08-17T13:16:52.257Z,7.20
2022-08-17T13:19:39.882Z,7.30
2022-08-17T13:22:11.933Z,7.40
2022-08-17T13:24:53.687Z,6.80
2022-08-17T13:27:24.410Z,7.80
2022-08-17T13:32:31.171Z,7.20
2022-08-17T13:35:29.512Z,7.70
2022-08-17T13:38:03.721Z,8.40
2022-08-17T13:40:39.146Z,7.80
2022-08-17T13:47:28.268Z,6.80
2022-08-17T13:49:56.111Z,6.80
2022-08-17T13:52:38.074Z,6.40
2022-08-17T13:55:17.118Z,7.20
2022-08-17T13:57:46.385Z,7.30
2022-08-17T14:00:30.017Z,7.10
2022-08-17T14:02:58.401Z,6.80
2022-08-17T14:05:27.075Z,7.70
2022-08-17T14:07:57.743Z,7.70
2022-08-17T14:10:26.062Z,7.10
2022-08-17T14:12:54.077Z,7.50
2022-08-17T14:15:24.379Z,7.60
2022-08-17T14:18:12.014Z,6.80
2022-08-17T14:20:39.996Z,7.00
2022-08-17T14:23:07.963Z,6.70
2022-08-17T14:25:35.832Z,7.10
2022-08-17T14:28:06.966Z,8.10
2022-08-17T14:30:35.007Z,7.20
2022-08-17T14:33:05.320Z,7.50
2022-08-17T14:35:34.648Z,7.70
2022-08-17T14:38:02.469Z,7.40
2022-08-17T14:40:30.806Z,8.20
2022-08-17T14:42:58.827Z,8.00
2022-08-17T14:45:30.073Z,8.00
2022-08-17T14:48:03.621Z,8.00
2022-08-17T14:50:31.917Z,7.80
2022-08-17T14:53:01.412Z,8.10
2022-08-17T14:55:30.543Z,7.40
2022-08-17T14:57:58.753Z,8.10
2022-08-17T15:00:27.886Z,8.00
2022-08-17T15:02:59.298Z,7.10
2022-08-17T15:05:30.753Z,7.10
2022-08-17T15:07:58.743Z,8.10
2022-08-17T15:10:28.033Z,7.20
2022-08-17T15:12:56.438Z,7.00
2022-08-17T15:15:24.931Z,7.50
2022-08-17T15:17:52.868Z,7.60
2022-08-17T15:20:24.307Z,7.30
2022-08-17T15:22:54.602Z,7.40
2022-08-17T15:25:23.156Z,6.70
2022-08-17T15:27:51.990Z,7.70
2022-08-17T15:30:20.995Z,7.40
2022-08-17T15:32:54.407Z,7.30
2022-08-17T15:35:27.749Z,7.80
2022-08-17T15:37:57.561Z,7.10
2022-08-17T15:40:25.341Z,7.80
2022-08-17T15:42:53.566Z,7.40
2022-08-17T15:45:25.978Z,7.60
2022-08-17T15:47:54.208Z,7.10
2022-08-17T15:50:21.929Z,7.70
2022-08-17T15:52:55.603Z,7.50
2022-08-17T15:55:24.479Z,7.70
2022-08-17T15:57:52.794Z,7.70
2022-08-17T16:00:23.299Z,7.20
2022-08-17T16:03:44.715Z,7.30
2022-08-17T16:05:40.803Z,7.40
2022-08-17T16:08:10.254Z,7.30
2022-08-17T16:10:38.290Z,7.10
2022-08-17T16:13:05.970Z,7.30
2022-08-17T16:15:51.148Z,7.90
2022-08-17T16:18:30.192Z,7.40
2022-08-17T16:21:18.339Z,7.60
2022-08-17T16:23:46.293Z,7.10
2022-08-17T16:26:14.165Z,7.60
2022-08-17T16:28:42.019Z,7.80
2022-08-17T16:31:09.859Z,7.30
2022-08-17T16:33:39.122Z,7.60
2022-08-17T16:36:08.312Z,7.40
2022-08-17T16:38:37.525Z,7.00
2022-08-17T16:41:06.603Z,7.30
2022-08-17T16:43:35.233Z,7.30
2022-08-17T16:46:03.292Z,7.20
2022-08-17T16:48:31.027Z,6.90
2022-08-17T16:51:04.137Z,7.10
2022-08-17T16:53:32.580Z,7.30
2022-08-17T16:56:01.563Z,26.10
2022-08-17T16:58:29.368Z,9.40
2022-08-17T17:00:58.692Z,27.10
2022-08-17T17:03:28.427Z,8.60
2022-08-17T17:06:06.770Z,16.90
2022-08-17T17:08:42.042Z,11.30
2022-08-17T17:11:17.274Z,8.30
2022-08-17T17:13:49.837Z,7.70
2022-08-17T17:16:23.304Z,7.00
2022-08-17T17:19:04.057Z,7.70
2022-08-17T17:21:39.667Z,7.00
2022-08-17T17:24:14.070Z,7.90
2022-08-17T17:26:54.949Z,7.40
2022-08-17T17:29:48.459Z,7.50
2022-08-17T17:32:21.418Z,6.70
2022-08-17T17:34:54.669Z,7.30
2022-08-17T17:37:31.999Z,6.80
2022-08-17T17:40:06.089Z,7.70
2022-08-17T17:42:34.982Z,7.30
2022-08-17T17:45:11.872Z,7.50
2022-08-17T17:47:39.908Z,7.10
2022-08-17T17:50:08.528Z,7.30
2022-08-17T17:52:47.200Z,7.30
2022-08-17T17:55:29.255Z,7.50
2022-08-17T17:58:06.883Z,7.10
2022-08-17T18:00:39.951Z,7.30
2022-08-17T18:03:22.123Z,7.90
2022-08-17T18:06:07.903Z,8.50
2022-08-17T18:08:49.976Z,8.90
2022-08-17T18:11:36.676Z,10.30
2022-08-17T18:14:16.700Z,12.50
2022-08-17T18:16:45.818Z,9.00
2022-08-17T18:19:15.531Z,7.90
2022-08-17T18:21:48.461Z,7.40
2022-08-17T18:24:29.974Z,7.70
2022-08-17T18:27:00.011Z,7.60
2022-08-17T18:29:37.640Z,7.30
2022-08-17T18:32:28.146Z,7.50
2022-08-17T18:34:59.056Z,7.40
2022-08-17T18:37:44.812Z,7.70
2022-08-17T18:40:34.137Z,7.60
2022-08-17T18:43:25.130Z,7.60
2022-08-17T18:45:56.035Z,7.40
2022-08-17T18:51:01.429Z,7.50
2022-08-17T18:53:37.796Z,7.20
2022-08-17T18:56:24.557Z,7.40
2022-08-17T18:59:02.297Z,7.20
2022-08-17T19:01:41.982Z,7.90
2022-08-17T19:04:34.635Z,7.70
2022-08-17T19:07:12.359Z,7.80
2022-08-17T19:09:46.785Z,7.70
2022-08-17T19:12:27.430Z,7.50
2022-08-17T19:14:57.118Z,7.60
2022-08-17T19:17:32.687Z,8.10
2022-08-17T19:20:06.597Z,7.50
2022-08-17T19:22:56.656Z,7.50
2022-08-17T19:25:31.335Z,7.20
2022-08-17T19:28:06.198Z,7.60
2022-08-17T19:30:54.374Z,7.60
2022-08-17T19:33:22.408Z,7.70
2022-08-17T19:35:58.607Z,7.40
2022-08-17T19:38:39.409Z,7.80
2022-08-17T19:41:15.682Z,7.40
2022-08-17T19:44:07.511Z,7.80
2022-08-17T19:46:48.549Z,7.40
2022-08-17T19:49:33.509Z,7.50
2022-08-17T19:52:26.251Z,8.00
2022-08-17T19:55:00.238Z,7.50
2022-08-17T19:57:37.874Z,8.00
2022-08-17T20:00:11.065Z,8.20
2022-08-17T20:02:46.489Z,7.50
2022-08-17T20:05:19.583Z,8.20
2022-08-17T20:07:54.015Z,7.90
2022-08-17T20:10:30.163Z,7.80
2022-08-17T20:13:06.332Z,8.40
2022-08-17T20:15:38.828Z,8.10
2022-08-17T20:18:17.671Z,7.60
2022-08-17T20:20:55.811Z,8.30
2022-08-17T20:23:51.132Z,7.50
2022-08-17T20:26:27.819Z,8.70
2022-08-17T20:29:19.829Z,8.10
2022-08-17T20:32:17.157Z,8.70
2022-08-17T20:34:47.597Z,7.90
2022-08-17T20:37:32.561Z,8.40
2022-08-17T20:40:21.514Z,8.80
2022-08-17T20:42:49.295Z,8.60
2022-08-17T20:46:04.680Z,8.20
2022-08-17T20:48:40.933Z,7.90
2022-08-17T20:51:21.019Z,7.90
2022-08-17T20:54:06.288Z,7.80
2022-08-17T20:56:59.805Z,8.60
2022-08-17T20:59:56.478Z,8.90
2022-08-17T21:02:27.345Z,8.50
2022-08-17T21:05:27.233Z,7.70
2022-08-17T21:08:12.152Z,8.70
2022-08-17T21:10:43.103Z,7.70
2022-08-17T21:13:45.787Z,8.40
2022-08-17T21:16:31.219Z,7.60
2022-08-17T21:19:09.722Z,8.60
2022-08-17T21:21:49.982Z,9.00
2022-08-17T21:24:30.536Z,8.40
2022-08-17T21:27:07.654Z,8.40
2022-08-17T21:29:52.779Z,8.40
2022-08-17T21:32:29.221Z,8.50
2022-08-17T21:35:24.426Z,9.00
2022-08-17T21:37:56.263Z,8.00
2022-08-17T21:40:26.520Z,8.40
2022-08-17T21:42:57.410Z,8.70
2022-08-17T21:45:30.295Z,8.20
2022-08-17T21:48:13.235Z,8.20
2022-08-17T21:50:43.850Z,8.60
2022-08-17T21:53:22.593Z,8.40
2022-08-17T21:55:51.700Z,7.80
2022-08-17T21:58:30.317Z,8.60
2022-08-17T22:01:21.068Z,8.60
2022-08-17T22:03:57.555Z,8.80
2022-08-17T22:06:29.008Z,8.00
2022-08-17T22:09:04.432Z,8.30
2022-08-17T22:11:46.937Z,8.00
2022-08-17T22:14:17.710Z,8.60
2022-08-17T22:16:45.502Z,8.60
2022-08-17T22:19:13.679Z,8.70
2022-08-17T22:21:41.419Z,8.30
2022-08-17T22:24:21.020Z,8.50
2022-08-17T22:27:02.195Z,8.50
2022-08-17T22:29:57.030Z,8.30
2022-08-17T22:32:34.842Z,8.80
2022-08-17T22:35:34.061Z,8.50
2022-08-17T22:38:30.751Z,8.70
2022-08-17T22:41:35.513Z,7.60
2022-08-17T22:44:23.976Z,9.00
2022-08-17T22:46:59.287Z,8.00
2022-08-17T22:49:30.398Z,8.10
2022-08-17T22:52:05.248Z,8.10
2022-08-17T22:54:51.526Z,8.50
2022-08-17T22:57:40.694Z,8.40
2022-08-17T23:00:30.097Z,9.20
2022-08-17T23:03:08.788Z,8.60
2022-08-17T23:05:37.258Z,8.20
2022-08-17T23:08:05.381Z,8.50
2022-08-17T23:10:35.279Z,8.50
2022-08-17T23:13:03.997Z,8.30
2022-08-17T23:15:33.165Z,7.70
2022-08-17T23:18:04.406Z,7.80
2022-08-17T23:20:33.614Z,8.80
2022-08-17T23:23:03.113Z,8.20
2022-08-17T23:25:33.732Z,8.60
2022-08-17T23:28:03.531Z,9.30
2022-08-17T23:30:33.169Z,9.40
2022-08-17T23:33:04.397Z,10.50
2022-08-17T23:35:38.926Z,10.30
2022-08-17T23:38:09.140Z,10.70
2022-08-17T23:40:37.475Z,10.20
2022-08-17T23:43:05.904Z,9.70
2022-08-17T23:45:43.231Z,10.80
2022-08-17T23:48:11.051Z,10.90
2022-08-17T23:50:38.995Z,10.80
2022-08-17T23:53:08.519Z,10.50
2022-08-17T23:55:36.329Z,10.80
2022-08-17T23:58:05.024Z,10.10
